createdAt,value
2019-05-06T00:00:34.636Z,102083.72
2019-05-06T00:03:05.065Z,102078.96
2019-05-06T00:05:34.784Z,102079.39
2019-05-06T00:08:04.305Z,102082.86
2019-05-06T00:10:35.894Z,102074.63
2019-05-06T00:13:05.477Z,102084.16
2019-05-06T00:15:35.532Z,102074.20
2019-05-06T00:18:05.096Z,102078.09
2019-05-06T00:20:35.169Z,102070.30
2019-05-06T00:23:09.349Z,102065.53
2019-05-06T00:25:46.662Z,102060.75
2019-05-06T00:28:29.965Z,102063.36
2019-05-06T00:31:12.121Z,102059.89
2019-05-06T00:33:33.996Z,102063.78
2019-05-06T00:36:04.730Z,102071.16
2019-05-06T00:38:37.312Z,102064.23
2019-05-06T00:41:24.684Z,102067.25
2019-05-06T00:43:54.714Z,102069.41
2019-05-06T00:46:24.431Z,102068.98
2019-05-06T00:48:54.394Z,102063.35
2019-05-06T00:51:24.461Z,102063.78
2019-05-06T00:54:05.065Z,102054.26
2019-05-06T00:56:36.142Z,102057.28
2019-05-06T00:59:05.546Z,102047.31
2019-05-06T01:01:34.995Z,102043.41
2019-05-06T01:04:05.157Z,102040.40
2019-05-06T01:06:34.765Z,102037.38
2019-05-06T01:09:08.466Z,102034.77
2019-05-06T01:11:37.912Z,102036.52
2019-05-06T01:14:09.199Z,102036.07
2019-05-06T01:16:38.658Z,102036.94
2019-05-06T01:19:08.051Z,102031.30
2019-05-06T01:21:37.480Z,102033.92
2019-05-06T01:24:06.873Z,102032.63
2019-05-06T01:26:36.330Z,102031.30
2019-05-06T01:29:05.810Z,102026.98
2019-05-06T01:31:42.768Z,102023.95
2019-05-06T01:34:06.427Z,102025.68
2019-05-06T01:36:35.863Z,102030.45
2019-05-06T01:39:18.127Z,102028.72
2019-05-06T01:41:54.997Z,102024.39
2019-05-06T01:44:24.592Z,102030.02
2019-05-06T01:46:54.292Z,102029.16
2019-05-06T01:49:25.710Z,102023.96
2019-05-06T01:51:55.181Z,102028.28
2019-05-06T01:54:25.008Z,102022.67
2019-05-06T01:56:55.035Z,102022.23
2019-05-06T01:59:24.847Z,102015.73
2019-05-06T02:02:00.117Z,102016.60
2019-05-06T02:04:25.524Z,102013.14
2019-05-06T02:06:54.926Z,102016.61
2019-05-06T02:09:24.851Z,102016.61
2019-05-06T02:11:54.336Z,102012.25
2019-05-06T02:14:24.668Z,102010.52
2019-05-06T02:16:56.181Z,102013.55
2019-05-06T02:19:25.687Z,102019.19
2019-05-06T02:21:56.734Z,102013.55
2019-05-06T02:24:27.808Z,102017.45
2019-05-06T02:26:57.282Z,102010.52
2019-05-06T02:29:28.365Z,102013.13
2019-05-06T02:32:21.052Z,102008.82
2019-05-06T02:34:38.339Z,102006.65
2019-05-06T02:37:15.653Z,102004.05
2019-05-06T02:39:45.113Z,101998.42
2019-05-06T02:42:14.516Z,102000.14
2019-05-06T02:44:44.454Z,101999.27
2019-05-06T02:47:15.555Z,102004.92
2019-05-06T02:49:49.318Z,101996.26
2019-05-06T02:52:18.805Z,101999.72
2019-05-06T02:54:48.254Z,101988.89
2019-05-06T02:57:18.021Z,101989.75
2019-05-06T02:59:47.467Z,101996.24
2019-05-06T03:02:34.356Z,101990.18
2019-05-06T03:04:48.207Z,101989.75
2019-05-06T03:07:17.655Z,101988.45
2019-05-06T03:09:47.244Z,101982.81
2019-05-06T03:12:16.906Z,101988.03
2019-05-06T03:14:46.366Z,101984.11
2019-05-06T03:17:17.447Z,101985.86
2019-05-06T03:19:48.641Z,101979.78
2019-05-06T03:22:34.523Z,101978.07
2019-05-06T03:25:06.986Z,101979.37
2019-05-06T03:27:35.726Z,101973.73
2019-05-06T03:30:07.184Z,101977.19
2019-05-06T03:32:48.183Z,101973.28
2019-05-06T03:35:31.237Z,101970.25
2019-05-06T03:37:39.829Z,101966.34
2019-05-06T03:40:09.595Z,101965.48
2019-05-06T03:42:38.992Z,101965.05
2019-05-06T03:45:13.029Z,101966.78
2019-05-06T03:47:43.604Z,101973.27
2019-05-06T03:50:13.608Z,101967.62
2019-05-06T03:52:44.291Z,101969.34
2019-05-06T03:55:14.064Z,101966.77
2019-05-06T03:57:43.908Z,101969.35
2019-05-06T04:00:16.017Z,101961.55
2019-05-06T04:02:45.962Z,101961.97
2019-05-06T04:05:15.442Z,101967.16
2019-05-06T04:07:46.892Z,101952.02
2019-05-06T04:10:16.691Z,101964.12
2019-05-06T04:12:48.182Z,101959.36
2019-05-06T04:15:17.861Z,101960.67
2019-05-06T04:17:48.995Z,101955.48
2019-05-06T04:20:26.111Z,101963.71
2019-05-06T04:23:06.288Z,101960.24
2019-05-06T04:25:40.013Z,101959.80
2019-05-06T04:28:23.571Z,101956.78
2019-05-06T04:30:54.561Z,101961.09
2019-05-06T04:33:23.800Z,101960.66
2019-05-06T04:35:54.244Z,101958.92
2019-05-06T04:38:24.123Z,101950.72
2019-05-06T04:40:54.536Z,101955.91
2019-05-06T04:43:26.681Z,101951.98
2019-05-06T04:45:55.416Z,101951.09
2019-05-06T04:48:25.041Z,101954.12
2019-05-06T04:50:54.636Z,101954.97
2019-05-06T04:53:26.967Z,101949.78
2019-05-06T04:55:55.605Z,101955.37
2019-05-06T04:58:25.969Z,101964.05
2019-05-06T05:00:56.291Z,101963.17
2019-05-06T05:03:26.187Z,101960.53
2019-05-06T05:05:55.774Z,101964.41
2019-05-06T05:08:27.001Z,101966.09
2019-05-06T05:11:03.609Z,101950.00
2019-05-06T05:13:43.391Z,101959.93
2019-05-06T05:16:23.788Z,101950.80
2019-05-06T05:19:07.303Z,101955.51
2019-05-06T05:21:36.712Z,101949.81
2019-05-06T05:24:06.214Z,101948.05
2019-05-06T05:26:37.145Z,101944.55
2019-05-06T05:29:06.651Z,101941.03
2019-05-06T05:31:37.638Z,101936.66
2019-05-06T05:34:07.299Z,101943.87
2019-05-06T05:36:36.790Z,101939.44
2019-05-06T05:39:07.540Z,101946.36
2019-05-06T05:41:37.141Z,101943.31
2019-05-06T05:44:08.378Z,101945.45
2019-05-06T05:46:38.756Z,101941.99
2019-05-06T05:49:12.005Z,101955.25
2019-05-06T05:51:42.585Z,101936.82
2019-05-06T05:54:13.062Z,101947.55
2019-05-06T05:56:43.154Z,101945.80
2019-05-06T05:59:12.814Z,101941.02
2019-05-06T06:01:43.474Z,101945.45
2019-05-06T06:04:13.178Z,101944.19
2019-05-06T06:06:42.804Z,101948.59
2019-05-06T06:09:12.767Z,101946.07
2019-05-06T06:11:44.940Z,101948.84
2019-05-06T06:14:33.293Z,101944.98
2019-05-06T06:17:12.976Z,101950.22
2019-05-06T06:19:57.388Z,101942.80
2019-05-06T06:22:28.509Z,101952.34
2019-05-06T06:24:58.056Z,101959.25
2019-05-06T06:27:29.113Z,101965.31
2019-05-06T06:29:59.715Z,101975.30
2019-05-06T06:32:32.554Z,101969.55
2019-05-06T06:35:10.530Z,101978.39
2019-05-06T06:37:39.602Z,101971.77
2019-05-06T06:40:12.983Z,101973.49
2019-05-06T06:42:42.767Z,101961.39
2019-05-06T06:45:12.609Z,101962.15
2019-05-06T06:47:42.582Z,101972.47
2019-05-06T06:50:12.664Z,101974.61
2019-05-06T06:52:42.552Z,101966.58
2019-05-06T06:55:12.980Z,101975.59
2019-05-06T06:57:47.436Z,101975.78
2019-05-06T07:00:18.737Z,101966.33
2019-05-06T07:02:49.991Z,101967.27
2019-05-06T07:05:30.260Z,101975.13
2019-05-06T07:08:02.051Z,101976.56
2019-05-06T07:10:43.156Z,101967.88
2019-05-06T07:13:14.203Z,101977.30
2019-05-06T07:15:44.729Z,101974.22
2019-05-06T07:18:14.163Z,101971.55
2019-05-06T07:20:48.092Z,101974.59
2019-05-06T07:23:22.187Z,101975.40
2019-05-06T07:25:53.702Z,101968.98
2019-05-06T07:28:26.355Z,101970.08
2019-05-06T07:30:56.455Z,101965.20
2019-05-06T07:33:25.928Z,101971.51
2019-05-06T07:35:55.466Z,101968.66
2019-05-06T07:38:24.871Z,101959.97
2019-05-06T07:40:56.591Z,101972.33
2019-05-06T07:43:27.647Z,101966.84
2019-05-06T07:45:58.801Z,101982.31
2019-05-06T07:48:28.211Z,101977.16
2019-05-06T07:50:58.959Z,101985.07
2019-05-06T07:53:28.534Z,101979.71
2019-05-06T07:55:59.659Z,101985.78
2019-05-06T07:58:29.130Z,101976.33
2019-05-06T08:01:02.441Z,101983.59
2019-05-06T08:03:32.953Z,101978.28
2019-05-06T08:06:02.735Z,101991.28
2019-05-06T08:08:33.633Z,101973.99
2019-05-06T08:11:05.176Z,101977.48
2019-05-06T08:13:34.581Z,101977.73
2019-05-06T08:16:04.378Z,101977.27
2019-05-06T08:18:33.872Z,101981.12
2019-05-06T08:21:05.029Z,101984.99
2019-05-06T08:23:45.027Z,101982.70
2019-05-06T08:26:17.615Z,101973.19
2019-05-06T08:28:45.642Z,101977.70
2019-05-06T08:31:16.826Z,101978.17
2019-05-06T08:33:46.228Z,101976.39
2019-05-06T08:36:17.782Z,101970.40
2019-05-06T08:39:02.544Z,101978.58
2019-05-06T08:41:33.191Z,101987.13
2019-05-06T08:44:02.884Z,101978.97
2019-05-06T08:46:32.959Z,101985.03
2019-05-06T08:49:03.271Z,101985.20
2019-05-06T08:51:37.180Z,101970.23
2019-05-06T08:54:08.336Z,101974.81
2019-05-06T08:56:38.078Z,101976.83
2019-05-06T08:59:07.490Z,101970.05
2019-05-06T09:01:47.769Z,101980.42
2019-05-06T09:04:17.270Z,101984.58
2019-05-06T09:06:46.896Z,101976.03
2019-05-06T09:09:16.294Z,101988.03
2019-05-06T09:11:45.764Z,101979.86
2019-05-06T09:14:15.230Z,101984.23
2019-05-06T09:16:44.901Z,101994.22
2019-05-06T09:19:14.379Z,101984.61
2019-05-06T09:21:46.317Z,101991.80
2019-05-06T09:24:15.121Z,101991.12
2019-05-06T09:26:46.196Z,101999.84
2019-05-06T09:29:35.692Z,102006.63
2019-05-06T09:32:09.648Z,101992.16
2019-05-06T09:34:42.877Z,101992.74
2019-05-06T09:37:14.672Z,101985.00
2019-05-06T09:39:45.643Z,101979.45
2019-05-06T09:42:15.699Z,101989.06
2019-05-06T09:44:50.303Z,101979.20
2019-05-06T09:47:19.561Z,101975.98
2019-05-06T09:49:49.338Z,101978.01
2019-05-06T09:52:19.927Z,101983.80
2019-05-06T09:54:57.094Z,101985.14
2019-05-06T09:57:34.219Z,101974.28
2019-05-06T10:00:05.471Z,101972.66
2019-05-06T10:02:34.918Z,101969.19
2019-05-06T10:05:06.047Z,101975.53
2019-05-06T10:07:35.507Z,101977.11
2019-05-06T10:10:05.946Z,101976.92
2019-05-06T10:12:35.603Z,101968.98
2019-05-06T10:15:05.811Z,101965.92
2019-05-06T10:17:35.247Z,101968.30
2019-05-06T10:20:06.620Z,101967.62
2019-05-06T10:22:36.071Z,101974.89
2019-05-06T10:25:06.280Z,101974.84
2019-05-06T10:27:37.139Z,101973.80
2019-05-06T10:30:12.551Z,101990.55
2019-05-06T10:32:46.751Z,101987.59
2019-05-06T10:35:16.564Z,101986.91
2019-05-06T10:38:05.379Z,101997.70
2019-05-06T10:40:55.174Z,101985.41
2019-05-06T10:43:27.105Z,101990.70
2019-05-06T10:45:56.561Z,101999.42
2019-05-06T10:48:26.253Z,102012.78
2019-05-06T10:50:57.395Z,101993.23
2019-05-06T10:53:26.859Z,101981.98
2019-05-06T10:55:58.010Z,101990.26
2019-05-06T10:58:27.516Z,101997.70
2019-05-06T11:01:05.251Z,101995.84
2019-05-06T11:03:34.673Z,101991.70
2019-05-06T11:06:04.385Z,101999.17
2019-05-06T11:08:34.025Z,101992.31
2019-05-06T11:11:14.829Z,101984.08
2019-05-06T11:13:34.661Z,101986.36
2019-05-06T11:16:04.315Z,101988.20
2019-05-06T11:18:35.460Z,102002.84
2019-05-06T11:21:04.888Z,101995.23
2019-05-06T11:23:34.305Z,101989.37
2019-05-06T11:26:04.072Z,101999.87
2019-05-06T11:28:42.595Z,102016.66
2019-05-06T11:31:16.881Z,101995.69
2019-05-06T11:33:55.464Z,101994.98
2019-05-06T11:36:38.476Z,101988.44
2019-05-06T11:39:08.546Z,101996.25
2019-05-06T11:41:38.223Z,102003.02
2019-05-06T11:44:09.209Z,101997.70
2019-05-06T11:46:38.825Z,101993.45
2019-05-06T11:49:12.292Z,101991.08
2019-05-06T11:51:43.543Z,101984.59
2019-05-06T11:54:17.440Z,101997.43
2019-05-06T11:56:50.777Z,101996.67
2019-05-06T11:59:27.750Z,102002.70
2019-05-06T12:02:07.966Z,102002.25
2019-05-06T12:04:38.964Z,102006.11
2019-05-06T12:07:15.513Z,102007.55
2019-05-06T12:09:41.393Z,102012.66
2019-05-06T12:12:12.748Z,102013.20
2019-05-06T12:14:42.992Z,102011.34
2019-05-06T12:17:12.869Z,102015.47
2019-05-06T12:19:43.903Z,102016.44
2019-05-06T12:22:13.528Z,102023.19
2019-05-06T12:24:43.267Z,102018.78
2019-05-06T12:27:14.569Z,102011.78
2019-05-06T12:29:44.291Z,102009.13
2019-05-06T12:32:16.059Z,102010.00
2019-05-06T12:34:45.530Z,102000.54
2019-05-06T12:37:17.356Z,102005.92
2019-05-06T12:39:48.527Z,102007.02
2019-05-06T12:42:28.697Z,102002.20
2019-05-06T12:45:03.268Z,102001.80
2019-05-06T12:47:35.640Z,102005.22
2019-05-06T12:50:06.503Z,101996.55
2019-05-06T12:52:35.949Z,101989.88
2019-05-06T12:55:18.370Z,101995.95
2019-05-06T12:57:38.305Z,101996.44
2019-05-06T13:00:12.756Z,101988.44
2019-05-06T13:02:43.389Z,101980.80
2019-05-06T13:05:12.605Z,101982.31
2019-05-06T13:07:46.777Z,101984.70
2019-05-06T13:10:18.873Z,101987.77
2019-05-06T13:12:49.954Z,101977.94
2019-05-06T13:15:19.428Z,101976.13
2019-05-06T13:17:49.037Z,101976.34
2019-05-06T13:20:18.518Z,101980.28
2019-05-06T13:22:55.963Z,101984.56
2019-05-06T13:25:25.437Z,101984.16
2019-05-06T13:27:54.888Z,101999.45
2019-05-06T13:30:26.015Z,101999.53
2019-05-06T13:32:57.185Z,102002.33
2019-05-06T13:35:26.623Z,101999.39
2019-05-06T13:37:57.715Z,101983.97
2019-05-06T13:40:27.462Z,101996.53
2019-05-06T13:43:00.101Z,101996.40
2019-05-06T13:45:32.461Z,101987.27
2019-05-06T13:48:03.824Z,101992.02
2019-05-06T13:50:34.860Z,101983.03
2019-05-06T13:53:11.427Z,101983.91
2019-05-06T13:55:36.792Z,101974.25
2019-05-06T13:58:06.285Z,101980.13
2019-05-06T14:00:36.767Z,101987.50
2019-05-06T14:03:06.159Z,101979.37
2019-05-06T14:05:35.746Z,101976.56
2019-05-06T14:08:05.223Z,101979.34
2019-05-06T14:10:34.667Z,101971.43
2019-05-06T14:13:04.072Z,101971.27
2019-05-06T14:15:33.588Z,101969.23
2019-05-06T14:18:04.563Z,101969.18
2019-05-06T14:20:34.146Z,101968.56
2019-05-06T14:23:03.559Z,101969.05
2019-05-06T14:25:44.956Z,101964.86
2019-05-06T14:28:28.000Z,101970.19
2019-05-06T14:31:04.778Z,101974.01
2019-05-06T14:33:34.217Z,101972.03
2019-05-06T14:36:03.660Z,101969.23
2019-05-06T14:38:33.338Z,101973.42
2019-05-06T14:41:07.906Z,101983.98
2019-05-06T14:43:35.652Z,101993.11
2019-05-06T14:46:05.325Z,101993.73
2019-05-06T14:48:34.861Z,101994.74
2019-05-06T14:51:04.313Z,101996.17
2019-05-06T14:53:33.799Z,102001.22
2019-05-06T14:56:10.499Z,102000.91
2019-05-06T14:58:40.148Z,101985.92
2019-05-06T15:01:09.625Z,101991.50
2019-05-06T15:03:39.882Z,101997.62
2019-05-06T15:06:09.325Z,101993.81
2019-05-06T15:08:38.799Z,101997.64
2019-05-06T15:11:08.234Z,102003.94
2019-05-06T15:13:38.045Z,102004.27
2019-05-06T15:16:07.624Z,101989.83
2019-05-06T15:18:37.065Z,102000.91
2019-05-06T15:21:32.344Z,102001.63
2019-05-06T15:23:42.426Z,102004.77
2019-05-06T15:26:12.293Z,102007.81
2019-05-06T15:28:42.573Z,102013.52
2019-05-06T15:31:16.370Z,102003.19
2019-05-06T15:33:48.311Z,102008.25
2019-05-06T15:36:19.438Z,102007.55
2019-05-06T15:38:48.870Z,102010.71
2019-05-06T15:41:18.358Z,102006.44
2019-05-06T15:43:47.802Z,102005.95
2019-05-06T15:46:17.202Z,101996.87
2019-05-06T15:48:46.618Z,102003.59
2019-05-06T15:51:17.663Z,102005.70
2019-05-06T15:53:47.101Z,101999.28
2019-05-06T15:56:16.538Z,102010.70
2019-05-06T15:58:47.484Z,102008.61
2019-05-06T16:01:16.917Z,102005.98
2019-05-06T16:03:46.617Z,102006.02
2019-05-06T16:06:16.061Z,102007.64
2019-05-06T16:08:46.123Z,102000.66
2019-05-06T16:11:15.559Z,102002.58
2019-05-06T16:13:45.246Z,101996.52
2019-05-06T16:16:14.655Z,101994.66
2019-05-06T16:18:44.343Z,101993.29
2019-05-06T16:21:15.542Z,101997.88
2019-05-06T16:23:46.627Z,101999.86
2019-05-06T16:26:16.019Z,102000.70
2019-05-06T16:28:45.741Z,101998.89
2019-05-06T16:31:15.151Z,101991.97
2019-05-06T16:33:44.665Z,102001.70
2019-05-06T16:36:14.140Z,101995.47
2019-05-06T16:38:46.693Z,101987.27
2019-05-06T16:41:16.459Z,101998.00
2019-05-06T16:43:45.972Z,101995.59
2019-05-06T16:46:15.401Z,101989.30
2019-05-06T16:48:45.450Z,101990.45
2019-05-06T16:51:15.117Z,101990.22
2019-05-06T16:53:46.173Z,101990.80
2019-05-06T16:56:23.472Z,101985.39
2019-05-06T16:58:54.634Z,101987.22
2019-05-06T17:01:24.183Z,101987.97
2019-05-06T17:04:14.266Z,101991.95
2019-05-06T17:06:43.883Z,101993.73
2019-05-06T17:09:20.702Z,101991.69
2019-05-06T17:11:46.301Z,101987.30
2019-05-06T17:14:15.701Z,101985.55
2019-05-06T17:16:45.379Z,101999.11
2019-05-06T17:19:14.788Z,101997.02
2019-05-06T17:21:48.209Z,101992.71
2019-05-06T17:24:16.414Z,101998.27
2019-05-06T17:26:47.055Z,101999.52
2019-05-06T17:29:24.378Z,102004.62
2019-05-06T17:32:02.559Z,102001.91
2019-05-06T17:34:33.658Z,101997.64
2019-05-06T17:37:07.178Z,102003.19
2019-05-06T17:39:36.663Z,102008.80
2019-05-06T17:42:06.285Z,102009.73
2019-05-06T17:44:35.705Z,102006.76
2019-05-06T17:47:22.891Z,102008.27
2019-05-06T17:49:54.068Z,102006.63
2019-05-06T17:52:24.789Z,102009.70
2019-05-06T17:54:54.243Z,102011.55
2019-05-06T17:57:23.797Z,102011.03
2019-05-06T17:59:53.347Z,102009.27
2019-05-06T18:02:24.423Z,102014.06
2019-05-06T18:04:53.831Z,102019.31
2019-05-06T18:07:24.554Z,102014.56
2019-05-06T18:09:53.958Z,102018.16
2019-05-06T18:12:23.482Z,102011.69
2019-05-06T18:14:53.533Z,102020.08
2019-05-06T18:17:23.012Z,102014.38
2019-05-06T18:19:52.417Z,102015.73
2019-05-06T18:22:22.694Z,102011.84
2019-05-06T18:24:52.657Z,102014.93
2019-05-06T18:27:22.733Z,102017.89
2019-05-06T18:29:53.290Z,102016.55
2019-05-06T18:32:23.452Z,102008.44
2019-05-06T18:34:52.934Z,102020.25
2019-05-06T18:37:23.395Z,102020.28
2019-05-06T18:39:53.136Z,102023.84
2019-05-06T18:42:23.706Z,102023.84
2019-05-06T18:44:53.194Z,102019.52
2019-05-06T18:47:22.629Z,102021.84
2019-05-06T18:49:52.492Z,102020.56
2019-05-06T18:52:22.890Z,102024.19
2019-05-06T18:54:52.618Z,102023.33
2019-05-06T18:57:22.702Z,102026.45
2019-05-06T18:59:53.261Z,102034.77
2019-05-06T19:02:23.109Z,102034.41
2019-05-06T19:04:55.064Z,102035.35
2019-05-06T19:07:24.515Z,102038.51
2019-05-06T19:09:55.590Z,102033.77
2019-05-06T19:12:31.646Z,102038.16
2019-05-06T19:14:56.442Z,102039.98
2019-05-06T19:17:25.905Z,102040.44
2019-05-06T19:19:55.613Z,102042.23
2019-05-06T19:22:25.046Z,102055.28
2019-05-06T19:24:54.485Z,102061.36
2019-05-06T19:27:24.936Z,102054.00
2019-05-06T19:29:54.838Z,102062.69
2019-05-06T19:32:25.613Z,102059.66
2019-05-06T19:34:55.091Z,102060.97
2019-05-06T19:37:24.557Z,102059.23
2019-05-06T19:39:54.140Z,102062.29
2019-05-06T19:42:24.974Z,102070.13
2019-05-06T19:44:54.450Z,102068.86
2019-05-06T19:47:23.881Z,102070.61
2019-05-06T19:49:53.441Z,102073.25
2019-05-06T19:52:24.961Z,102071.53
2019-05-06T19:54:53.924Z,102073.70
2019-05-06T19:57:23.445Z,102077.61
2019-05-06T19:59:52.913Z,102068.53
2019-05-06T20:02:25.597Z,102066.81
2019-05-06T20:04:59.262Z,102069.86
2019-05-06T20:07:30.406Z,102070.28
2019-05-06T20:10:03.337Z,102078.09
2019-05-06T20:12:35.414Z,102075.92
2019-05-06T20:15:24.233Z,102075.47
2019-05-06T20:17:53.677Z,102074.63
2019-05-06T20:20:23.087Z,102072.01
2019-05-06T20:22:52.514Z,102071.98
2019-05-06T20:25:22.136Z,102064.63
2019-05-06T20:27:53.040Z,102071.52
2019-05-06T20:30:22.572Z,102074.13
2019-05-06T20:32:52.743Z,102069.33
2019-05-06T20:35:22.451Z,102079.24
2019-05-06T20:37:53.399Z,102073.62
2019-05-06T20:40:23.254Z,102074.88
2019-05-06T20:42:52.758Z,102072.66
2019-05-06T20:45:23.703Z,102068.77
2019-05-06T20:47:53.244Z,102071.36
2019-05-06T20:50:22.777Z,102068.31
2019-05-06T20:52:52.423Z,102070.01
2019-05-06T20:55:22.922Z,102077.34
2019-05-06T20:57:53.009Z,102074.25
2019-05-06T21:00:22.675Z,102075.06
2019-05-06T21:02:53.476Z,102067.64
2019-05-06T21:05:23.067Z,102068.47
2019-05-06T21:07:52.779Z,102069.69
2019-05-06T21:10:22.448Z,102071.83
2019-05-06T21:12:53.283Z,102071.31
2019-05-06T21:15:23.131Z,102072.09
2019-05-06T21:17:52.615Z,102076.34
2019-05-06T21:20:22.162Z,102073.72
2019-05-06T21:22:52.799Z,102079.30
2019-05-06T21:25:22.731Z,102079.31
2019-05-06T21:27:53.237Z,102082.78
2019-05-06T21:30:22.807Z,102075.44
2019-05-06T21:32:52.251Z,102078.47
2019-05-06T21:35:22.298Z,102076.33
2019-05-06T21:37:52.937Z,102078.93
2019-05-06T21:40:22.444Z,102080.22
2019-05-06T21:42:51.873Z,102083.66
2019-05-06T21:45:22.161Z,102081.49
2019-05-06T21:47:53.018Z,102083.63
2019-05-06T21:50:22.851Z,102081.39
2019-05-06T21:52:52.394Z,102080.07
2019-05-06T21:55:22.712Z,102080.91
2019-05-06T21:57:52.988Z,102083.45
2019-05-06T22:00:24.729Z,102082.98
2019-05-06T22:02:54.161Z,102085.11
2019-05-06T22:05:23.606Z,102087.25
2019-05-06T22:07:53.071Z,102074.75
2019-05-06T22:10:22.785Z,102091.08
2019-05-06T22:12:53.688Z,102085.91
2019-05-06T22:15:23.172Z,102081.58
2019-05-06T22:17:54.442Z,102084.59
2019-05-06T22:20:23.900Z,102076.39
2019-05-06T22:22:53.345Z,102076.38
2019-05-06T22:25:22.762Z,102076.39
2019-05-06T22:27:52.211Z,102078.95
2019-05-06T22:30:23.830Z,102074.13
2019-05-06T22:32:52.893Z,102070.66
2019-05-06T22:35:23.078Z,102070.17
2019-05-06T22:37:53.077Z,102073.53
2019-05-06T22:40:23.836Z,102069.61
2019-05-06T22:42:53.437Z,102072.31
2019-05-06T22:45:22.830Z,102073.13
2019-05-06T22:47:54.206Z,102064.55
2019-05-06T22:50:23.618Z,102069.34
2019-05-06T22:52:53.058Z,102071.08
2019-05-06T22:55:22.469Z,102067.20
2019-05-06T22:57:52.931Z,102065.48
2019-05-06T23:00:24.087Z,102069.30
2019-05-06T23:02:58.281Z,102070.95
2019-05-06T23:05:27.702Z,102076.11
2019-05-06T23:07:57.248Z,102074.83
2019-05-06T23:10:26.693Z,102074.41
2019-05-06T23:12:56.814Z,102076.96
2019-05-06T23:15:26.522Z,102077.37
2019-05-06T23:17:56.007Z,102076.53
2019-05-06T23:20:25.628Z,102071.22
2019-05-06T23:22:55.119Z,102072.80
2019-05-06T23:25:24.570Z,102073.59
2019-05-06T23:27:53.983Z,102072.77
2019-05-06T23:30:23.718Z,102075.34
2019-05-06T23:32:53.182Z,102074.04
2019-05-06T23:35:22.605Z,102071.80
2019-05-06T23:38:28.576Z,102067.89
2019-05-06T23:41:34.404Z,102072.18
2019-05-06T23:44:45.621Z,102069.20
2019-05-06T23:47:48.202Z,102071.05
2019-05-06T23:50:54.191Z,102065.58
2019-05-06T23:54:00.191Z,102069.10
2019-05-06T23:56:43.478Z,102067.04
2019-05-06T23:59:17.729Z,102077.02
